sensor_id;sensor_type;location;lat;lon;timestamp;temperature;humidity
68433;DHT22;55412;51.350;17.056;2023-06-26T00:00:20;18.70;68.90
68433;DHT22;55412;51.350;17.056;2023-06-26T00:02:46;18.70;68.90
68433;DHT22;55412;51.350;17.056;2023-06-26T00:05:12;18.70;69.00
68433;DHT22;55412;51.350;17.056;2023-06-26T00:07:39;18.70;68.40
68433;DHT22;55412;51.350;17.056;2023-06-26T00:10:06;18.70;68.80
68433;DHT22;55412;51.350;17.056;2023-06-26T00:12:32;18.70;68.70
68433;DHT22;55412;51.350;17.056;2023-06-26T00:14:59;18.70;68.40
68433;DHT22;55412;51.350;17.056;2023-06-26T00:17:25;18.70;68.60
68433;DHT22;55412;51.350;17.056;2023-06-26T00:19:51;18.70;68.40
68433;DHT22;55412;51.350;17.056;2023-06-26T00:22:18;18.70;68.30
68433;DHT22;55412;51.350;17.056;2023-06-26T00:24:46;18.70;68.00
68433;DHT22;55412;51.350;17.056;2023-06-26T00:27:12;18.70;68.30
68433;DHT22;55412;51.350;17.056;2023-06-26T00:29:38;18.60;68.60
68433;DHT22;55412;51.350;17.056;2023-06-26T00:32:04;18.60;68.70
68433;DHT22;55412;51.350;17.056;2023-06-26T00:34:31;18.50;70.00
68433;DHT22;55412;51.350;17.056;2023-06-26T00:36:57;18.40;70.20
68433;DHT22;55412;51.350;17.056;2023-06-26T00:39:25;18.40;70.40
68433;DHT22;55412;51.350;17.056;2023-06-26T00:41:51;18.40;70.00
68433;DHT22;55412;51.350;17.056;2023-06-26T00:44:24;18.40;69.70
68433;DHT22;55412;51.350;17.056;2023-06-26T00:46:51;18.50;69.30
68433;DHT22;55412;51.350;17.056;2023-06-26T00:49:17;18.50;69.70
68433;DHT22;55412;51.350;17.056;2023-06-26T00:51:43;18.50;69.30
68433;DHT22;55412;51.350;17.056;2023-06-26T00:54:09;18.50;69.70
68433;DHT22;55412;51.350;17.056;2023-06-26T00:56:35;18.50;70.20
68433;DHT22;55412;51.350;17.056;2023-06-26T00:59:02;18.50;69.90
68433;DHT22;55412;51.350;17.056;2023-06-26T01:01:28;18.40;69.90
68433;DHT22;55412;51.350;17.056;2023-06-26T01:03:54;18.40;70.50
68433;DHT22;55412;51.350;17.056;2023-06-26T01:06:23;18.40;70.50
68433;DHT22;55412;51.350;17.056;2023-06-26T01:08:52;18.40;71.20
68433;DHT22;55412;51.350;17.056;2023-06-26T01:11:18;18.30;71.10
68433;DHT22;55412;51.350;17.056;2023-06-26T01:13:45;18.30;71.60
68433;DHT22;55412;51.350;17.056;2023-06-26T01:16:12;18.20;71.30
68433;DHT22;55412;51.350;17.056;2023-06-26T01:18:39;18.30;70.90
68433;DHT22;55412;51.350;17.056;2023-06-26T01:21:11;18.30;70.60
68433;DHT22;55412;51.350;17.056;2023-06-26T01:28:53;18.30;70.90
68433;DHT22;55412;51.350;17.056;2023-06-26T01:31:22;18.30;71.10
68433;DHT22;55412;51.350;17.056;2023-06-26T01:33:49;18.30;71.50
68433;DHT22;55412;51.350;17.056;2023-06-26T01:36:16;18.20;71.80
68433;DHT22;55412;51.350;17.056;2023-06-26T01:38:42;18.30;71.60
68433;DHT22;55412;51.350;17.056;2023-06-26T01:41:08;18.20;71.60
68433;DHT22;55412;51.350;17.056;2023-06-26T01:47:00;18.10;71.80
68433;DHT22;55412;51.350;17.056;2023-06-26T01:52:39;18.00;72.20
68433;DHT22;55412;51.350;17.056;2023-06-26T01:55:17;17.90;72.70
68433;DHT22;55412;51.350;17.056;2023-06-26T01:57:53;17.90;72.60
68433;DHT22;55412;51.350;17.056;2023-06-26T02:00:23;17.90;72.80
68433;DHT22;55412;51.350;17.056;2023-06-26T02:02:50;17.90;72.80
68433;DHT22;55412;51.350;17.056;2023-06-26T02:05:16;17.90;72.90
68433;DHT22;55412;51.350;17.056;2023-06-26T02:07:42;17.80;73.00
68433;DHT22;55412;51.350;17.056;2023-06-26T02:10:09;17.80;72.60
68433;DHT22;55412;51.350;17.056;2023-06-26T02:12:36;17.90;72.80
68433;DHT22;55412;51.350;17.056;2023-06-26T02:15:04;17.90;72.30
68433;DHT22;55412;51.350;17.056;2023-06-26T02:17:30;17.90;72.10
68433;DHT22;55412;51.350;17.056;2023-06-26T02:19:56;17.90;72.00
68433;DHT22;55412;51.350;17.056;2023-06-26T02:22:22;17.90;72.40
68433;DHT22;55412;51.350;17.056;2023-06-26T02:24:48;17.90;72.60
68433;DHT22;55412;51.350;17.056;2023-06-26T02:27:14;17.90;72.50
68433;DHT22;55412;51.350;17.056;2023-06-26T02:29:41;17.90;72.60
68433;DHT22;55412;51.350;17.056;2023-06-26T02:32:07;17.80;72.90
68433;DHT22;55412;51.350;17.056;2023-06-26T02:34:34;17.80;73.10
68433;DHT22;55412;51.350;17.056;2023-06-26T02:37:01;17.80;72.70
68433;DHT22;55412;51.350;17.056;2023-06-26T02:39:27;17.80;72.40
68433;DHT22;55412;51.350;17.056;2023-06-26T02:41:53;17.90;72.20
68433;DHT22;55412;51.350;17.056;2023-06-26T02:44:19;17.90;71.40
68433;DHT22;55412;51.350;17.056;2023-06-26T02:46:46;17.90;71.50
68433;DHT22;55412;51.350;17.056;2023-06-26T02:49:12;17.90;71.80
68433;DHT22;55412;51.350;17.056;2023-06-26T02:51:38;17.80;72.10
68433;DHT22;55412;51.350;17.056;2023-06-26T02:54:04;17.70;72.30
68433;DHT22;55412;51.350;17.056;2023-06-26T02:56:30;17.80;72.70
68433;DHT22;55412;51.350;17.056;2023-06-26T02:58:57;17.80;72.10
68433;DHT22;55412;51.350;17.056;2023-06-26T03:01:24;17.80;73.40
68433;DHT22;55412;51.350;17.056;2023-06-26T03:03:50;17.80;73.30
68433;DHT22;55412;51.350;17.056;2023-06-26T03:06:16;17.80;73.40
68433;DHT22;55412;51.350;17.056;2023-06-26T03:08:42;17.80;73.20
68433;DHT22;55412;51.350;17.056;2023-06-26T03:11:09;17.80;73.30
68433;DHT22;55412;51.350;17.056;2023-06-26T03:13:36;17.80;73.60
68433;DHT22;55412;51.350;17.056;2023-06-26T03:16:03;17.80;73.90
68433;DHT22;55412;51.350;17.056;2023-06-26T03:18:30;17.80;73.20
68433;DHT22;55412;51.350;17.056;2023-06-26T03:20:56;17.80;73.10
68433;DHT22;55412;51.350;17.056;2023-06-26T03:23:23;17.90;73.90
68433;DHT22;55412;51.350;17.056;2023-06-26T03:25:50;17.80;74.80
68433;DHT22;55412;51.350;17.056;2023-06-26T03:28:16;17.80;75.40
68433;DHT22;55412;51.350;17.056;2023-06-26T03:30:43;17.80;75.50
68433;DHT22;55412;51.350;17.056;2023-06-26T03:33:09;17.70;75.40
68433;DHT22;55412;51.350;17.056;2023-06-26T03:35:35;17.70;75.20
68433;DHT22;55412;51.350;17.056;2023-06-26T03:38:04;17.70;75.70
68433;DHT22;55412;51.350;17.056;2023-06-26T03:40:30;17.80;75.90
68433;DHT22;55412;51.350;17.056;2023-06-26T03:42:56;17.80;75.80
68433;DHT22;55412;51.350;17.056;2023-06-26T03:45:22;17.80;75.40
68433;DHT22;55412;51.350;17.056;2023-06-26T03:47:49;17.90;75.60
68433;DHT22;55412;51.350;17.056;2023-06-26T03:50:18;18.00;75.80
68433;DHT22;55412;51.350;17.056;2023-06-26T03:52:45;18.10;76.40
68433;DHT22;55412;51.350;17.056;2023-06-26T03:55:12;18.10;76.10
68433;DHT22;55412;51.350;17.056;2023-06-26T03:57:38;18.20;76.00
68433;DHT22;55412;51.350;17.056;2023-06-26T04:00:04;18.20;76.60
68433;DHT22;55412;51.350;17.056;2023-06-26T04:02:34;18.20;77.30
68433;DHT22;55412;51.350;17.056;2023-06-26T04:05:01;18.30;75.30
68433;DHT22;55412;51.350;17.056;2023-06-26T04:07:29;18.40;75.20
68433;DHT22;55412;51.350;17.056;2023-06-26T04:09:57;18.60;74.50
68433;DHT22;55412;51.350;17.056;2023-06-26T04:12:23;18.70;74.30
68433;DHT22;55412;51.350;17.056;2023-06-26T04:14:49;18.80;73.30
68433;DHT22;55412;51.350;17.056;2023-06-26T04:17:15;18.90;73.30
68433;DHT22;55412;51.350;17.056;2023-06-26T04:19:41;19.00;71.50
68433;DHT22;55412;51.350;17.056;2023-06-26T04:22:07;19.10;70.50
68433;DHT22;55412;51.350;17.056;2023-06-26T04:24:33;19.30;69.30
68433;DHT22;55412;51.350;17.056;2023-06-26T04:26:59;19.50;74.30
68433;DHT22;55412;51.350;17.056;2023-06-26T04:29:26;19.60;73.60
68433;DHT22;55412;51.350;17.056;2023-06-26T04:31:53;19.80;76.50
68433;DHT22;55412;51.350;17.056;2023-06-26T04:34:24;19.90;74.60
68433;DHT22;55412;51.350;17.056;2023-06-26T04:36:51;20.00;72.20
68433;DHT22;55412;51.350;17.056;2023-06-26T04:39:17;20.20;71.90
68433;DHT22;55412;51.350;17.056;2023-06-26T04:41:44;20.30;70.10
68433;DHT22;55412;51.350;17.056;2023-06-26T04:44:11;20.50;67.50
68433;DHT22;55412;51.350;17.056;2023-06-26T04:46:37;20.70;67.10
68433;DHT22;55412;51.350;17.056;2023-06-26T04:49:07;20.90;68.50
68433;DHT22;55412;51.350;17.056;2023-06-26T04:51:34;21.20;67.80
68433;DHT22;55412;51.350;17.056;2023-06-26T04:54:15;21.30;65.50
68433;DHT22;55412;51.350;17.056;2023-06-26T04:56:41;21.40;66.70
68433;DHT22;55412;51.350;17.056;2023-06-26T04:59:07;21.50;64.70
68433;DHT22;55412;51.350;17.056;2023-06-26T05:01:38;21.70;65.80
68433;DHT22;55412;51.350;17.056;2023-06-26T05:04:05;21.80;63.40
68433;DHT22;55412;51.350;17.056;2023-06-26T05:06:32;21.90;63.70
68433;DHT22;55412;51.350;17.056;2023-06-26T05:08:58;22.10;63.40
68433;DHT22;55412;51.350;17.056;2023-06-26T05:11:25;22.20;63.10
68433;DHT22;55412;51.350;17.056;2023-06-26T05:13:51;22.30;61.70
68433;DHT22;55412;51.350;17.056;2023-06-26T05:16:17;22.40;61.40
68433;DHT22;55412;51.350;17.056;2023-06-26T05:18:43;22.50;61.00
68433;DHT22;55412;51.350;17.056;2023-06-26T05:21:09;22.50;61.50
68433;DHT22;55412;51.350;17.056;2023-06-26T05:23:35;22.60;60.70
68433;DHT22;55412;51.350;17.056;2023-06-26T05:26:02;22.70;61.70
68433;DHT22;55412;51.350;17.056;2023-06-26T05:28:29;22.90;61.40
68433;DHT22;55412;51.350;17.056;2023-06-26T05:30:59;23.00;59.70
68433;DHT22;55412;51.350;17.056;2023-06-26T05:33:26;23.10;60.10
68433;DHT22;55412;51.350;17.056;2023-06-26T05:35:53;23.20;59.50
68433;DHT22;55412;51.350;17.056;2023-06-26T05:38:20;23.30;61.00
68433;DHT22;55412;51.350;17.056;2023-06-26T05:40:47;23.50;59.20
68433;DHT22;55412;51.350;17.056;2023-06-26T05:43:13;23.60;58.80
68433;DHT22;55412;51.350;17.056;2023-06-26T05:45:40;23.80;60.10
68433;DHT22;55412;51.350;17.056;2023-06-26T05:48:07;24.20;61.80
68433;DHT22;55412;51.350;17.056;2023-06-26T05:50:33;24.60;60.40
68433;DHT22;55412;51.350;17.056;2023-06-26T05:53:00;24.80;57.70
68433;DHT22;55412;51.350;17.056;2023-06-26T05:55:28;24.90;56.70
68433;DHT22;55412;51.350;17.056;2023-06-26T05:57:57;25.00;59.40
68433;DHT22;55412;51.350;17.056;2023-06-26T06:00:27;25.40;58.50
68433;DHT22;55412;51.350;17.056;2023-06-26T06:02:54;25.90;57.40
68433;DHT22;55412;51.350;17.056;2023-06-26T06:05:21;26.30;55.20
68433;DHT22;55412;51.350;17.056;2023-06-26T06:07:48;26.60;55.40
68433;DHT22;55412;51.350;17.056;2023-06-26T06:10:15;26.90;54.40
68433;DHT22;55412;51.350;17.056;2023-06-26T06:12:41;27.20;53.30
68433;DHT22;55412;51.350;17.056;2023-06-26T06:15:08;27.30;53.60
68433;DHT22;55412;51.350;17.056;2023-06-26T06:17:34;27.40;52.50
68433;DHT22;55412;51.350;17.056;2023-06-26T06:20:00;27.60;53.00
68433;DHT22;55412;51.350;17.056;2023-06-26T06:22:26;27.90;52.30
68433;DHT22;55412;51.350;17.056;2023-06-26T06:24:52;28.20;51.10
68433;DHT22;55412;51.350;17.056;2023-06-26T06:27:18;28.50;51.20
68433;DHT22;55412;51.350;17.056;2023-06-26T06:29:44;28.80;50.40
68433;DHT22;55412;51.350;17.056;2023-06-26T06:32:10;29.20;49.10
68433;DHT22;55412;51.350;17.056;2023-06-26T06:34:36;29.60;48.40
68433;DHT22;55412;51.350;17.056;2023-06-26T06:37:03;29.90;48.10
68433;DHT22;55412;51.350;17.056;2023-06-26T06:39:29;30.30;45.60
68433;DHT22;55412;51.350;17.056;2023-06-26T06:41:55;30.70;46.00
68433;DHT22;55412;51.350;17.056;2023-06-26T06:44:22;31.20;43.40
68433;DHT22;55412;51.350;17.056;2023-06-26T06:46:48;32.00;42.50
68433;DHT22;55412;51.350;17.056;2023-06-26T06:49:14;32.40;42.70
68433;DHT22;55412;51.350;17.056;2023-06-26T06:51:40;32.30;43.40
68433;DHT22;55412;51.350;17.056;2023-06-26T06:54:06;32.00;43.50
68433;DHT22;55412;51.350;17.056;2023-06-26T06:56:32;31.90;43.80
68433;DHT22;55412;51.350;17.056;2023-06-26T06:58:58;31.70;44.20
68433;DHT22;55412;51.350;17.056;2023-06-26T07:01:24;31.70;43.90
68433;DHT22;55412;51.350;17.056;2023-06-26T07:03:50;31.60;44.40
68433;DHT22;55412;51.350;17.056;2023-06-26T07:06:16;31.40;44.50
68433;DHT22;55412;51.350;17.056;2023-06-26T07:08:42;31.50;43.90
68433;DHT22;55412;51.350;17.056;2023-06-26T07:11:08;31.60;43.90
68433;DHT22;55412;51.350;17.056;2023-06-26T07:13:34;31.50;44.50
68433;DHT22;55412;51.350;17.056;2023-06-26T07:16:00;31.90;43.70
68433;DHT22;55412;51.350;17.056;2023-06-26T07:18:26;31.90;43.50
68433;DHT22;55412;51.350;17.056;2023-06-26T07:20:52;32.20;43.40
68433;DHT22;55412;51.350;17.056;2023-06-26T07:23:18;33.40;40.80
68433;DHT22;55412;51.350;17.056;2023-06-26T07:25:44;35.30;38.80
68433;DHT22;55412;51.350;17.056;2023-06-26T07:28:11;38.20;34.20
68433;DHT22;55412;51.350;17.056;2023-06-26T07:30:37;40.60;31.30
68433;DHT22;55412;51.350;17.056;2023-06-26T07:33:04;40.70;30.50
68433;DHT22;55412;51.350;17.056;2023-06-26T07:35:30;39.10;32.50
68433;DHT22;55412;51.350;17.056;2023-06-26T07:37:56;37.50;34.00
68433;DHT22;55412;51.350;17.056;2023-06-26T07:40:22;36.30;35.60
68433;DHT22;55412;51.350;17.056;2023-06-26T07:42:48;35.20;37.80
68433;DHT22;55412;51.350;17.056;2023-06-26T07:45:15;34.20;37.70
68433;DHT22;55412;51.350;17.056;2023-06-26T07:47:41;33.30;40.70
68433;DHT22;55412;51.350;17.056;2023-06-26T07:50:08;32.50;40.80
68433;DHT22;55412;51.350;17.056;2023-06-26T07:52:34;32.10;42.30
68433;DHT22;55412;51.350;17.056;2023-06-26T07:55:00;31.70;41.90
68433;DHT22;55412;51.350;17.056;2023-06-26T07:57:26;31.30;43.00
68433;DHT22;55412;51.350;17.056;2023-06-26T07:59:52;30.90;45.00
68433;DHT22;55412;51.350;17.056;2023-06-26T08:02:18;30.50;45.60
68433;DHT22;55412;51.350;17.056;2023-06-26T08:04:44;29.80;46.00
68433;DHT22;55412;51.350;17.056;2023-06-26T08:07:10;29.40;47.60
68433;DHT22;55412;51.350;17.056;2023-06-26T08:09:37;29.40;47.10
68433;DHT22;55412;51.350;17.056;2023-06-26T08:12:03;29.20;47.80
68433;DHT22;55412;51.350;17.056;2023-06-26T08:14:29;29.20;47.30
68433;DHT22;55412;51.350;17.056;2023-06-26T08:16:57;29.30;47.50
68433;DHT22;55412;51.350;17.056;2023-06-26T08:19:25;29.00;47.90
68433;DHT22;55412;51.350;17.056;2023-06-26T08:21:51;28.70;47.70
68433;DHT22;55412;51.350;17.056;2023-06-26T08:24:17;28.70;47.40
68433;DHT22;55412;51.350;17.056;2023-06-26T08:26:45;28.50;49.20
68433;DHT22;55412;51.350;17.056;2023-06-26T08:29:12;28.40;47.60
68433;DHT22;55412;51.350;17.056;2023-06-26T08:31:39;28.30;48.80
68433;DHT22;55412;51.350;17.056;2023-06-26T08:34:06;28.10;47.90
68433;DHT22;55412;51.350;17.056;2023-06-26T08:36:33;28.20;48.70
68433;DHT22;55412;51.350;17.056;2023-06-26T08:38:59;28.20;49.10
68433;DHT22;55412;51.350;17.056;2023-06-26T08:41:25;28.00;49.20
68433;DHT22;55412;51.350;17.056;2023-06-26T08:43:51;27.60;49.70
68433;DHT22;55412;51.350;17.056;2023-06-26T08:46:19;27.20;49.70
68433;DHT22;55412;51.350;17.056;2023-06-26T08:49:21;27.00;49.30
68433;DHT22;55412;51.350;17.056;2023-06-26T08:51:52;26.80;49.20
68433;DHT22;55412;51.350;17.056;2023-06-26T08:54:28;26.80;47.60
68433;DHT22;55412;51.350;17.056;2023-06-26T08:56:59;26.80;49.70
68433;DHT22;55412;51.350;17.056;2023-06-26T08:59:25;26.80;49.00
68433;DHT22;55412;51.350;17.056;2023-06-26T09:01:51;26.70;49.90
68433;DHT22;55412;51.350;17.056;2023-06-26T09:04:18;26.70;50.60
68433;DHT22;55412;51.350;17.056;2023-06-26T09:06:44;26.60;51.00
68433;DHT22;55412;51.350;17.056;2023-06-26T09:09:10;26.40;51.50
68433;DHT22;55412;51.350;17.056;2023-06-26T09:11:36;26.40;52.00
68433;DHT22;55412;51.350;17.056;2023-06-26T09:14:02;26.40;51.60
68433;DHT22;55412;51.350;17.056;2023-06-26T09:16:33;26.30;52.00
68433;DHT22;55412;51.350;17.056;2023-06-26T09:19:09;26.20;51.30
68433;DHT22;55412;51.350;17.056;2023-06-26T09:21:39;26.20;52.30
68433;DHT22;55412;51.350;17.056;2023-06-26T09:24:07;26.10;49.90
68433;DHT22;55412;51.350;17.056;2023-06-26T09:26:39;26.10;50.80
68433;DHT22;55412;51.350;17.056;2023-06-26T09:29:06;26.20;51.90
68433;DHT22;55412;51.350;17.056;2023-06-26T09:31:33;26.50;51.50
68433;DHT22;55412;51.350;17.056;2023-06-26T09:34:02;26.60;51.90
68433;DHT22;55412;51.350;17.056;2023-06-26T09:36:31;26.80;50.90
68433;DHT22;55412;51.350;17.056;2023-06-26T09:39:08;26.90;51.40
68433;DHT22;55412;51.350;17.056;2023-06-26T09:41:43;26.90;48.90
68433;DHT22;55412;51.350;17.056;2023-06-26T09:44:12;26.70;48.80
68433;DHT22;55412;51.350;17.056;2023-06-26T09:46:39;26.70;49.40
68433;DHT22;55412;51.350;17.056;2023-06-26T09:49:10;26.80;48.30
68433;DHT22;55412;51.350;17.056;2023-06-26T09:51:39;26.90;48.50
68433;DHT22;55412;51.350;17.056;2023-06-26T09:54:07;27.00;49.40
68433;DHT22;55412;51.350;17.056;2023-06-26T09:56:33;27.00;49.60
68433;DHT22;55412;51.350;17.056;2023-06-26T09:59:02;26.80;50.90
68433;DHT22;55412;51.350;17.056;2023-06-26T10:01:31;26.50;51.00
68433;DHT22;55412;51.350;17.056;2023-06-26T10:03:58;26.30;51.60
68433;DHT22;55412;51.350;17.056;2023-06-26T10:06:35;26.20;51.30
68433;DHT22;55412;51.350;17.056;2023-06-26T10:09:03;26.30;51.40
68433;DHT22;55412;51.350;17.056;2023-06-26T10:11:38;26.30;51.10
68433;DHT22;55412;51.350;17.056;2023-06-26T10:14:07;26.30;51.50
68433;DHT22;55412;51.350;17.056;2023-06-26T10:16:36;26.40;49.30
68433;DHT22;55412;51.350;17.056;2023-06-26T10:19:06;26.50;50.10
68433;DHT22;55412;51.350;17.056;2023-06-26T10:21:34;26.50;51.00
68433;DHT22;55412;51.350;17.056;2023-06-26T10:24:06;26.40;51.10
68433;DHT22;55412;51.350;17.056;2023-06-26T10:26:38;26.30;49.20
68433;DHT22;55412;51.350;17.056;2023-06-26T10:29:08;26.40;49.40
68433;DHT22;55412;51.350;17.056;2023-06-26T10:31:35;26.50;49.50
68433;DHT22;55412;51.350;17.056;2023-06-26T10:34:02;26.50;48.70
68433;DHT22;55412;51.350;17.056;2023-06-26T10:36:31;26.40;50.40
68433;DHT22;55412;51.350;17.056;2023-06-26T10:39:01;26.20;50.90
68433;DHT22;55412;51.350;17.056;2023-06-26T10:41:37;26.00;51.20
68433;DHT22;55412;51.350;17.056;2023-06-26T10:44:16;25.90;51.30
68433;DHT22;55412;51.350;17.056;2023-06-26T10:46:54;26.00;51.40
68433;DHT22;55412;51.350;17.056;2023-06-26T10:49:26;26.00;51.80
68433;DHT22;55412;51.350;17.056;2023-06-26T10:51:54;26.00;52.30
68433;DHT22;55412;51.350;17.056;2023-06-26T10:54:23;26.00;52.60
68433;DHT22;55412;51.350;17.056;2023-06-26T10:56:50;26.00;51.80
68433;DHT22;55412;51.350;17.056;2023-06-26T10:59:19;25.90;52.20
68433;DHT22;55412;51.350;17.056;2023-06-26T11:02:00;26.00;49.60
68433;DHT22;55412;51.350;17.056;2023-06-26T11:07:25;26.30;51.50
68433;DHT22;55412;51.350;17.056;2023-06-26T11:10:08;26.20;51.50
68433;DHT22;55412;51.350;17.056;2023-06-26T11:12:35;26.20;49.20
68433;DHT22;55412;51.350;17.056;2023-06-26T11:15:18;26.20;50.40
68433;DHT22;55412;51.350;17.056;2023-06-26T11:17:45;26.10;51.40
68433;DHT22;55412;51.350;17.056;2023-06-26T11:20:13;26.10;51.30
68433;DHT22;55412;51.350;17.056;2023-06-26T11:22:42;26.20;52.00
68433;DHT22;55412;51.350;17.056;2023-06-26T11:25:10;26.20;51.90
68433;DHT22;55412;51.350;17.056;2023-06-26T11:27:42;26.20;52.20
68433;DHT22;55412;51.350;17.056;2023-06-26T11:30:21;26.10;52.20
68433;DHT22;55412;51.350;17.056;2023-06-26T11:32:48;25.90;51.40
68433;DHT22;55412;51.350;17.056;2023-06-26T11:35:25;25.90;52.90
68433;DHT22;55412;51.350;17.056;2023-06-26T11:37:56;25.90;52.20
68433;DHT22;55412;51.350;17.056;2023-06-26T11:40:26;26.00;52.40
68433;DHT22;55412;51.350;17.056;2023-06-26T11:43:01;26.10;52.70
68433;DHT22;55412;51.350;17.056;2023-06-26T11:45:32;26.10;51.10
68433;DHT22;55412;51.350;17.056;2023-06-26T11:47:59;26.20;49.30
68433;DHT22;55412;51.350;17.056;2023-06-26T11:50:27;26.30;50.70
68433;DHT22;55412;51.350;17.056;2023-06-26T11:55:22;26.40;51.30
68433;DHT22;55412;51.350;17.056;2023-06-26T11:57:58;26.40;51.10
68433;DHT22;55412;51.350;17.056;2023-06-26T12:00:24;26.40;51.60
68433;DHT22;55412;51.350;17.056;2023-06-26T12:02:50;26.40;51.00
68433;DHT22;55412;51.350;17.056;2023-06-26T12:05:17;26.30;50.30
68433;DHT22;55412;51.350;17.056;2023-06-26T12:07:46;26.30;51.40
68433;DHT22;55412;51.350;17.056;2023-06-26T12:10:14;26.20;50.70
68433;DHT22;55412;51.350;17.056;2023-06-26T12:12:41;26.20;50.70
68433;DHT22;55412;51.350;17.056;2023-06-26T12:15:10;26.10;50.30
68433;DHT22;55412;51.350;17.056;2023-06-26T12:17:40;26.00;51.20
68433;DHT22;55412;51.350;17.056;2023-06-26T12:20:23;26.20;51.90
68433;DHT22;55412;51.350;17.056;2023-06-26T12:22:51;26.40;49.90
68433;DHT22;55412;51.350;17.056;2023-06-26T12:25:24;26.40;51.50
68433;DHT22;55412;51.350;17.056;2023-06-26T12:27:50;26.40;51.30
68433;DHT22;55412;51.350;17.056;2023-06-26T12:30:16;26.20;50.80
68433;DHT22;55412;51.350;17.056;2023-06-26T12:32:46;26.20;50.80
68433;DHT22;55412;51.350;17.056;2023-06-26T12:35:14;26.10;49.80
68433;DHT22;55412;51.350;17.056;2023-06-26T12:37:42;26.30;50.40
68433;DHT22;55412;51.350;17.056;2023-06-26T12:40:20;26.30;50.60
68433;DHT22;55412;51.350;17.056;2023-06-26T12:42:49;26.30;50.20
68433;DHT22;55412;51.350;17.056;2023-06-26T12:45:15;26.30;51.00
68433;DHT22;55412;51.350;17.056;2023-06-26T12:47:42;26.20;50.90
68433;DHT22;55412;51.350;17.056;2023-06-26T12:50:08;26.30;51.40
68433;DHT22;55412;51.350;17.056;2023-06-26T12:52:34;26.60;51.10
68433;DHT22;55412;51.350;17.056;2023-06-26T12:55:00;26.90;49.90
68433;DHT22;55412;51.350;17.056;2023-06-26T12:57:26;26.90;50.00
68433;DHT22;55412;51.350;17.056;2023-06-26T12:59:52;26.80;49.50
68433;DHT22;55412;51.350;17.056;2023-06-26T13:02:19;26.80;48.00
68433;DHT22;55412;51.350;17.056;2023-06-26T13:04:45;26.70;50.00
68433;DHT22;55412;51.350;17.056;2023-06-26T13:07:12;26.70;50.50
68433;DHT22;55412;51.350;17.056;2023-06-26T13:09:38;26.70;50.30
68433;DHT22;55412;51.350;17.056;2023-06-26T13:12:05;26.60;51.30
68433;DHT22;55412;51.350;17.056;2023-06-26T13:14:32;26.40;51.50
68433;DHT22;55412;51.350;17.056;2023-06-26T13:17:00;26.50;51.10
68433;DHT22;55412;51.350;17.056;2023-06-26T13:19:26;26.50;49.50
68433;DHT22;55412;51.350;17.056;2023-06-26T13:21:52;26.70;47.60
68433;DHT22;55412;51.350;17.056;2023-06-26T13:24:19;27.00;48.00
68433;DHT22;55412;51.350;17.056;2023-06-26T13:26:46;27.00;49.50
68433;DHT22;55412;51.350;17.056;2023-06-26T13:29:12;26.70;50.00
68433;DHT22;55412;51.350;17.056;2023-06-26T13:31:39;26.60;47.90
68433;DHT22;55412;51.350;17.056;2023-06-26T13:34:05;26.80;48.80
68433;DHT22;55412;51.350;17.056;2023-06-26T13:36:31;27.10;47.90
68433;DHT22;55412;51.350;17.056;2023-06-26T13:38:59;27.10;48.70
68433;DHT22;55412;51.350;17.056;2023-06-26T13:41:26;26.90;49.50
68433;DHT22;55412;51.350;17.056;2023-06-26T13:43:53;26.90;48.80
68433;DHT22;55412;51.350;17.056;2023-06-26T13:46:19;26.80;48.20
68433;DHT22;55412;51.350;17.056;2023-06-26T13:48:45;26.70;48.70
68433;DHT22;55412;51.350;17.056;2023-06-26T13:51:12;26.70;50.00
68433;DHT22;55412;51.350;17.056;2023-06-26T13:53:38;26.70;50.50
68433;DHT22;55412;51.350;17.056;2023-06-26T13:56:04;26.70;50.90
68433;DHT22;55412;51.350;17.056;2023-06-26T13:58:30;26.60;51.40
68433;DHT22;55412;51.350;17.056;2023-06-26T14:00:58;26.50;50.60
68433;DHT22;55412;51.350;17.056;2023-06-26T14:03:26;26.60;50.50
68433;DHT22;55412;51.350;17.056;2023-06-26T14:05:54;26.60;51.20
68433;DHT22;55412;51.350;17.056;2023-06-26T14:08:20;26.50;51.60
68433;DHT22;55412;51.350;17.056;2023-06-26T14:10:46;26.30;51.50
68433;DHT22;55412;51.350;17.056;2023-06-26T14:13:12;26.20;51.00
68433;DHT22;55412;51.350;17.056;2023-06-26T14:15:41;26.10;50.60
68433;DHT22;55412;51.350;17.056;2023-06-26T14:18:07;26.10;50.60
68433;DHT22;55412;51.350;17.056;2023-06-26T14:20:33;26.20;51.40
68433;DHT22;55412;51.350;17.056;2023-06-26T14:23:01;26.40;50.20
68433;DHT22;55412;51.350;17.056;2023-06-26T14:25:27;26.50;50.60
68433;DHT22;55412;51.350;17.056;2023-06-26T14:27:57;26.50;47.80
68433;DHT22;55412;51.350;17.056;2023-06-26T14:30:24;26.50;49.70
68433;DHT22;55412;51.350;17.056;2023-06-26T14:32:50;26.60;50.90
68433;DHT22;55412;51.350;17.056;2023-06-26T14:35:16;26.60;49.40
68433;DHT22;55412;51.350;17.056;2023-06-26T14:37:42;26.50;49.10
68433;DHT22;55412;51.350;17.056;2023-06-26T14:40:10;26.30;50.70
68433;DHT22;55412;51.350;17.056;2023-06-26T14:42:36;26.40;47.80
68433;DHT22;55412;51.350;17.056;2023-06-26T14:45:03;26.60;50.30
68433;DHT22;55412;51.350;17.056;2023-06-26T14:47:29;26.60;48.10
68433;DHT22;55412;51.350;17.056;2023-06-26T14:49:55;26.60;49.70
68433;DHT22;55412;51.350;17.056;2023-06-26T14:52:21;26.60;49.90
68433;DHT22;55412;51.350;17.056;2023-06-26T14:54:47;26.60;48.40
68433;DHT22;55412;51.350;17.056;2023-06-26T14:57:13;26.70;49.50
68433;DHT22;55412;51.350;17.056;2023-06-26T14:59:39;26.60;50.20
68433;DHT22;55412;51.350;17.056;2023-06-26T15:02:06;26.50;50.60
68433;DHT22;55412;51.350;17.056;2023-06-26T15:04:32;26.50;50.80
68433;DHT22;55412;51.350;17.056;2023-06-26T15:06:58;26.50;49.70
68433;DHT22;55412;51.350;17.056;2023-06-26T15:09:24;26.50;49.80
68433;DHT22;55412;51.350;17.056;2023-06-26T15:11:50;26.30;48.40
68433;DHT22;55412;51.350;17.056;2023-06-26T15:14:16;26.20;49.00
68433;DHT22;55412;51.350;17.056;2023-06-26T15:16:42;26.20;49.50
68433;DHT22;55412;51.350;17.056;2023-06-26T15:19:10;26.20;48.40
68433;DHT22;55412;51.350;17.056;2023-06-26T15:21:35;26.20;50.50
68433;DHT22;55412;51.350;17.056;2023-06-26T15:24:01;26.10;50.80
68433;DHT22;55412;51.350;17.056;2023-06-26T15:26:28;26.00;51.50
68433;DHT22;55412;51.350;17.056;2023-06-26T15:28:54;26.00;51.20
68433;DHT22;55412;51.350;17.056;2023-06-26T15:31:20;26.00;52.30
68433;DHT22;55412;51.350;17.056;2023-06-26T15:33:46;25.90;50.30